Time;durP1;ratioP1;P1;durP2;ratioP2;P2;SDS_P1;SDS_P2;PMS_P1;PMS_P2;Temp;Humidity;BMP_temperature;BMP_pressure;BME280_temperature;BME280_humidity;BME280_pressure;Samples;Min_cycle;Max_cycle;Signal;HPM_P1;HPM_P2
2022/01/12 00:02:26;;;;;;;;;;;4.00;99.90;;;;;;8414483;28;19932;-69
2022/01/12 00:06:28;;;;;;;;;;;4.00;99.90;;;;;;8423991;28;19951;-69
2022/01/12 00:10:30;;;;;;;;;;;4.00;99.90;;;;;;8423980;28;19975;-69
2022/01/12 00:14:32;;;;;;;;;;;4.00;99.90;;;;;;8411169;28;20303;-69
2022/01/12 00:18:34;;;;;;;;;;;4.00;99.90;;;;;;8401997;28;20275;-69
2022/01/12 00:22:40;;;;;;;;;;;3.90;99.90;;;;;;8399904;28;19924;-69
2022/01/12 00:35:26;;;;;;;;;;;4.00;99.90;;;;;;8417098;28;19925;-69
2022/01/12 00:39:27;;;;;;;;;;;4.00;99.90;;;;;;8395769;28;20317;-69
2022/01/12 00:43:30;;;;;;;;;;;4.00;99.90;;;;;;8420897;28;19924;-69
2022/01/12 00:47:32;;;;;;;;;;;4.00;99.90;;;;;;8426545;28;20260;-69
2022/01/12 00:51:36;;;;;;;;;;;4.00;99.90;;;;;;8434727;28;19932;-69
2022/01/12 00:55:37;;;;;;;;;;;4.00;99.90;;;;;;8400666;28;19931;-69
2022/01/12 00:59:39;;;;;;;;;;;4.00;99.90;;;;;;8410716;28;19928;-69
2022/01/12 01:03:41;;;;;;;;;;;4.00;99.90;;;;;;8408637;28;19928;-69
2022/01/12 01:07:43;;;;;;;;;;;4.00;99.90;;;;;;8394136;28;20391;-69
2022/01/12 01:11:44;;;;;;;;;;;4.00;99.90;;;;;;8394946;28;19931;-69
2022/01/12 01:28:28;;;;;;;;;;;4.00;99.90;;;;;;8411012;28;19924;-70
2022/01/12 01:32:29;;;;;;;;;;;4.10;99.90;;;;;;8421225;28;20359;-69
2022/01/12 01:36:32;;;;;;;;;;;4.10;99.90;;;;;;8418301;28;20019;-69
2022/01/12 01:40:35;;;;;;;;;;;4.00;99.90;;;;;;8392773;28;19960;-69
2022/01/12 01:57:24;;;;;;;;;;;4.00;99.90;;;;;;8420588;28;19928;-69
2022/01/12 02:01:25;;;;;;;;;;;4.00;99.90;;;;;;8418888;28;20375;-69
2022/01/12 02:05:40;;;;;;;;;;;3.90;99.90;;;;;;8420104;28;19935;-69
2022/01/12 02:09:41;;;;;;;;;;;3.90;99.90;;;;;;8391532;28;19963;-69
2022/01/12 02:13:43;;;;;;;;;;;3.90;99.90;;;;;;8414255;28;19931;-69
2022/01/12 02:50:35;;;;;;;;;;;4.10;99.90;;;;;;8421297;28;19924;-69
2022/01/12 02:56:41;;;;;;;;;;;4.20;99.90;;;;;;8419118;28;19976;-69
2022/01/12 03:01:03;;;;;;;;;;;4.20;99.90;;;;;;8411868;28;20406;-70
2022/01/12 03:09:10;;;;;;;;;;;4.20;99.90;;;;;;8415822;28;19931;-69
2022/01/12 03:13:11;;;;;;;;;;;4.20;99.90;;;;;;8411613;28;19928;-69
2022/01/12 03:17:15;;;;;;;;;;;4.20;99.90;;;;;;8420764;28;20303;-69
2022/01/12 03:21:18;;;;;;;;;;;4.20;99.90;;;;;;8414906;28;19925;-70
2022/01/12 03:25:20;;;;;;;;;;;4.20;99.90;;;;;;8412357;28;19932;-69
2022/01/12 03:29:22;;;;;;;;;;;4.30;99.90;;;;;;8415641;28;19928;-69
2022/01/12 03:37:55;;;;;;;;;;;4.20;99.90;;;;;;8412702;28;19924;-69
2022/01/12 03:41:56;;;;;;;;;;;4.20;99.90;;;;;;8422954;28;19975;-69
2022/01/12 03:45:58;;;;;;;;;;;4.20;99.90;;;;;;8413959;28;19931;-70
2022/01/12 03:50:00;;;;;;;;;;;4.20;99.90;;;;;;8414344;28;20472;-70
2022/01/12 03:54:02;;;;;;;;;;;4.20;99.90;;;;;;8416680;28;20001;-69
2022/01/12 03:58:03;;;;;;;;;;;4.20;99.90;;;;;;8401760;28;19931;-70
2022/01/12 04:02:05;;;;;;;;;;;4.20;99.90;;;;;;8407505;28;19972;-69
2022/01/12 04:10:27;;;;;;;;;;;4.20;99.90;;;;;;8406781;28;19959;-70
2022/01/12 04:14:28;;;;;;;;;;;4.30;99.90;;;;;;8406537;28;19924;-70
2022/01/12 04:18:30;;;;;;;;;;;4.30;99.90;;;;;;8412491;28;20384;-70
2022/01/12 04:26:59;;;;;;;;;;;4.30;99.90;;;;;;8388134;28;20322;-70
2022/01/12 04:31:01;;;;;;;;;;;4.30;99.90;;;;;;8417199;28;19931;-70
2022/01/12 04:35:03;;;;;;;;;;;4.30;99.90;;;;;;8407142;28;19927;-70
2022/01/12 04:39:04;;;;;;;;;;;4.30;99.90;;;;;;8423992;28;19932;-70
2022/01/12 04:43:08;;;;;;;;;;;4.30;99.90;;;;;;8433298;28;19924;-70
2022/01/12 04:47:17;;;;;;;;;;;4.30;99.90;;;;;;8421301;28;19932;-71
2022/01/12 04:51:19;;;;;;;;;;;4.30;99.90;;;;;;8418929;28;20022;-70
2022/01/12 04:55:20;;;;;;;;;;;4.30;99.90;;;;;;8423533;28;19960;-71
2022/01/12 04:59:23;;;;;;;;;;;4.40;99.90;;;;;;8419375;28;19928;-71
2022/01/12 05:07:57;;;;;;;;;;;4.40;99.90;;;;;;8421219;28;19956;-70
2022/01/12 05:16:21;;;;;;;;;;;4.40;99.90;;;;;;8374926;28;19928;-70
2022/01/12 05:20:23;;;;;;;;;;;4.40;99.90;;;;;;8402207;28;19932;-70
2022/01/12 05:24:25;;;;;;;;;;;4.40;99.90;;;;;;8419155;28;19970;-70
2022/01/12 05:29:49;;;;;;;;;;;4.30;99.90;;;;;;8407144;28;19917;-71
2022/01/12 05:33:51;;;;;;;;;;;4.40;99.90;;;;;;8378391;28;20366;-71
2022/01/12 05:37:52;;;;;;;;;;;4.40;99.90;;;;;;8379940;28;19947;-71
2022/01/12 05:41:54;;;;;;;;;;;4.40;99.90;;;;;;8379153;28;19932;-71
2022/01/12 05:45:57;;;;;;;;;;;4.40;99.90;;;;;;8387279;28;19928;-71
2022/01/12 05:49:58;;;;;;;;;;;4.40;99.90;;;;;;8381771;28;19931;-72
2022/01/12 05:54:00;;;;;;;;;;;4.40;99.90;;;;;;8382997;28;19947;-71
2022/01/12 05:58:02;;;;;;;;;;;4.50;99.90;;;;;;8380406;28;20023;-70
2022/01/12 06:02:03;;;;;;;;;;;4.50;99.90;;;;;;8379000;28;19971;-71
2022/01/12 06:06:05;;;;;;;;;;;4.50;99.90;;;;;;8382018;28;19975;-72
2022/01/12 06:10:07;;;;;;;;;;;4.50;99.90;;;;;;8380183;28;20327;-71
2022/01/12 06:14:10;;;;;;;;;;;4.50;99.90;;;;;;8374523;28;19924;-71
2022/01/12 06:18:11;;;;;;;;;;;4.50;99.90;;;;;;8378742;28;19924;-71
2022/01/12 06:22:13;;;;;;;;;;;4.50;99.90;;;;;;8377327;28;19976;-71
2022/01/12 06:26:15;;;;;;;;;;;4.50;99.90;;;;;;8369397;28;19967;-70
2022/01/12 06:34:28;;;;;;;;;;;4.50;99.90;;;;;;8401163;28;19924;-69
2022/01/12 06:38:29;;;;;;;;;;;4.50;99.90;;;;;;8400201;28;20050;-69
2022/01/12 06:42:32;;;;;;;;;;;4.50;99.90;;;;;;8386898;28;19947;-69
2022/01/12 06:46:35;;;;;;;;;;;4.50;99.90;;;;;;8380327;28;19924;-70
2022/01/12 06:50:36;;;;;;;;;;;4.50;99.90;;;;;;8388013;28;19990;-70
2022/01/12 06:54:38;;;;;;;;;;;4.50;99.90;;;;;;8366413;28;20376;-69
2022/01/12 06:58:40;;;;;;;;;;;4.50;99.90;;;;;;8383119;28;20395;-69
2022/01/12 07:02:41;;;;;;;;;;;4.40;99.90;;;;;;8368783;28;19939;-69
2022/01/12 07:06:43;;;;;;;;;;;4.40;99.90;;;;;;8383166;28;19977;-70
2022/01/12 07:10:49;;;;;;;;;;;4.50;99.90;;;;;;8369497;28;19964;-69
2022/01/12 07:14:50;;;;;;;;;;;4.40;99.90;;;;;;8371967;28;19932;-69
2022/01/12 07:18:52;;;;;;;;;;;4.50;99.90;;;;;;8377928;28;19932;-69
2022/01/12 07:22:54;;;;;;;;;;;4.50;99.90;;;;;;8380534;28;19932;-70
2022/01/12 07:26:55;;;;;;;;;;;4.50;99.90;;;;;;8366622;28;19974;-69
2022/01/12 07:30:57;;;;;;;;;;;4.50;99.90;;;;;;8368603;28;19964;-69
2022/01/12 07:34:59;;;;;;;;;;;4.50;99.90;;;;;;8394640;28;19925;-69
2022/01/12 07:39:01;;;;;;;;;;;4.60;99.90;;;;;;8383202;28;20264;-70
2022/01/12 07:43:03;;;;;;;;;;;4.60;99.90;;;;;;8386077;28;19948;-69
2022/01/12 07:47:05;;;;;;;;;;;4.50;99.90;;;;;;8375134;28;20019;-70
2022/01/12 07:51:08;;;;;;;;;;;4.60;99.90;;;;;;8385202;28;19936;-69
2022/01/12 07:55:10;;;;;;;;;;;4.60;99.90;;;;;;8381832;28;20252;-69
2022/01/12 07:59:11;;;;;;;;;;;4.60;99.90;;;;;;8373102;28;20263;-69
2022/01/12 08:03:14;;;;;;;;;;;4.60;99.90;;;;;;8388280;28;19964;-69
2022/01/12 08:07:17;;;;;;;;;;;4.70;99.90;;;;;;8371445;28;19925;-69
2022/01/12 08:11:18;;;;;;;;;;;4.70;99.90;;;;;;8395861;28;19924;-68
2022/01/12 08:15:20;;;;;;;;;;;4.70;99.90;;;;;;8391236;28;19939;-69
2022/01/12 08:19:23;;;;;;;;;;;4.70;99.90;;;;;;8387785;28;19924;-69
2022/01/12 08:23:25;;;;;;;;;;;4.80;99.90;;;;;;8390777;28;20314;-69
2022/01/12 08:27:26;;;;;;;;;;;4.80;99.90;;;;;;8367453;28;19932;-70
2022/01/12 08:31:28;;;;;;;;;;;4.90;99.90;;;;;;8369177;28;20402;-69
2022/01/12 08:35:30;;;;;;;;;;;4.90;99.90;;;;;;8369609;28;19986;-69
2022/01/12 08:39:31;;;;;;;;;;;4.90;99.90;;;;;;8385169;28;19972;-68
2022/01/12 08:43:33;;;;;;;;;;;4.90;99.90;;;;;;8380865;28;20296;-69
2022/01/12 08:47:35;;;;;;;;;;;5.00;99.90;;;;;;8380092;28;20303;-69
2022/01/12 08:51:37;;;;;;;;;;;5.00;99.90;;;;;;8384039;28;19968;-69
2022/01/12 08:55:39;;;;;;;;;;;5.00;99.90;;;;;;8371834;28;19975;-69
2022/01/12 08:59:40;;;;;;;;;;;5.00;99.90;;;;;;8374049;28;20268;-69
2022/01/12 09:03:42;;;;;;;;;;;5.00;99.90;;;;;;8370145;28;20355;-69
2022/01/12 09:07:44;;;;;;;;;;;5.10;99.90;;;;;;8382584;28;19936;-69
2022/01/12 09:11:46;;;;;;;;;;;5.10;99.90;;;;;;8383329;28;19936;-68
2022/01/12 09:15:47;;;;;;;;;;;5.10;99.90;;;;;;8372586;28;19983;-69
2022/01/12 09:19:50;;;;;;;;;;;5.10;99.90;;;;;;8365433;28;19932;-69
2022/01/12 09:23:52;;;;;;;;;;;5.20;99.90;;;;;;8366757;28;20171;-69
2022/01/12 09:27:54;;;;;;;;;;;5.20;99.90;;;;;;8366249;28;19955;-69
2022/01/12 09:31:55;;;;;;;;;;;5.20;99.90;;;;;;8383178;28;20363;-69
2022/01/12 09:35:57;;;;;;;;;;;5.30;99.90;;;;;;8370753;28;19971;-68
2022/01/12 09:39:59;;;;;;;;;;;5.30;99.90;;;;;;8383850;28;19925;-69
2022/01/12 09:44:01;;;;;;;;;;;5.30;99.90;;;;;;8389511;28;19925;-69
2022/01/12 09:48:03;;;;;;;;;;;5.30;99.90;;;;;;8391205;28;20288;-70
2022/01/12 09:52:04;;;;;;;;;;;5.30;99.90;;;;;;8372059;28;19937;-69
2022/01/12 09:56:11;;;;;;;;;;;5.40;99.90;;;;;;8381758;28;19932;-69
2022/01/12 10:00:15;;;;;;;;;;;5.40;99.90;;;;;;8371029;28;20431;-69
2022/01/12 10:04:16;;;;;;;;;;;5.40;99.90;;;;;;8381509;28;20494;-69
2022/01/12 10:08:18;;;;;;;;;;;5.50;99.90;;;;;;8385073;28;19935;-71
2022/01/12 10:12:21;;;;;;;;;;;5.50;99.90;;;;;;8391583;28;19970;-71
2022/01/12 10:16:26;;;;;;;;;;;5.50;99.90;;;;;;8374396;28;19924;-71
2022/01/12 10:20:27;;;;;;;;;;;5.60;99.90;;;;;;8380191;28;19931;-71
2022/01/12 10:24:29;;;;;;;;;;;5.60;99.90;;;;;;8392461;28;19925;-71
2022/01/12 10:28:31;;;;;;;;;;;5.60;99.90;;;;;;8395618;28;20027;-72
2022/01/12 10:32:33;;;;;;;;;;;5.70;99.90;;;;;;8393042;28;19964;-72
2022/01/12 10:36:39;;;;;;;;;;;5.80;99.90;;;;;;8371261;28;19929;-72
2022/01/12 10:40:48;;;;;;;;;;;5.80;99.90;;;;;;8390006;28;19956;-71
2022/01/12 10:44:52;;;;;;;;;;;5.80;99.90;;;;;;8384731;28;19932;-71
2022/01/12 10:48:54;;;;;;;;;;;5.90;99.90;;;;;;8373382;28;20329;-71
2022/01/12 10:52:56;;;;;;;;;;;6.00;99.90;;;;;;8396794;28;20295;-71
2022/01/12 10:57:12;;;;;;;;;;;6.00;99.90;;;;;;8392949;28;20364;-71
2022/01/12 11:01:15;;;;;;;;;;;6.10;99.90;;;;;;8387078;28;19971;-71
2022/01/12 11:05:18;;;;;;;;;;;6.10;99.90;;;;;;8370818;28;19932;-71
2022/01/12 11:09:19;;;;;;;;;;;6.10;99.90;;;;;;8386504;28;19928;-71
2022/01/12 11:13:22;;;;;;;;;;;6.10;99.90;;;;;;8371280;28;19964;-72
2022/01/12 11:17:23;;;;;;;;;;;6.20;99.90;;;;;;8387080;28;19932;-71
2022/01/12 11:21:41;;;;;;;;;;;6.30;99.90;;;;;;8384253;28;19979;-72
2022/01/12 11:25:43;;;;;;;;;;;6.50;99.90;;;;;;8386054;28;19925;-71
2022/01/12 11:29:45;;;;;;;;;;;6.80;99.90;;;;;;8386883;28;19928;-71
2022/01/12 11:33:46;;;;;;;;;;;7.10;99.90;;;;;;8375280;28;19935;-71
2022/01/12 11:37:48;;;;;;;;;;;7.10;99.90;;;;;;8374940;28;19963;-71
2022/01/12 11:41:56;;;;;;;;;;;7.00;99.90;;;;;;8384314;28;19931;-71
2022/01/12 11:46:02;;;;;;;;;;;6.80;99.90;;;;;;8373547;28;19937;-71
2022/01/12 11:50:10;;;;;;;;;;;6.80;99.90;;;;;;8381107;28;19933;-71
2022/01/12 11:54:14;;;;;;;;;;;6.70;99.90;;;;;;8385656;28;20352;-71
2022/01/12 11:58:17;;;;;;;;;;;6.70;99.90;;;;;;8395179;28;19929;-71
2022/01/12 12:02:19;;;;;;;;;;;6.90;99.90;;;;;;8362285;28;20311;-71
2022/01/12 12:06:21;;;;;;;;;;;7.30;99.90;;;;;;8371367;28;19933;-72
2022/01/12 12:10:24;;;;;;;;;;;7.50;99.90;;;;;;8388001;28;19931;-71
2022/01/12 12:14:26;;;;;;;;;;;7.60;99.90;;;;;;8384168;28;19972;-71
2022/01/12 12:18:27;;;;;;;;;;;7.50;99.90;;;;;;8386379;28;20289;-71
2022/01/12 12:22:30;;;;;;;;;;;7.40;99.90;;;;;;8389117;28;20020;-72
2022/01/12 12:26:51;;;;;;;;;;;7.30;99.90;;;;;;8377924;28;19983;-71
2022/01/12 12:30:52;;;;;;;;;;;7.20;99.90;;;;;;8385884;28;19924;-71
2022/01/12 12:34:59;;;;;;;;;;;7.00;99.90;;;;;;8389725;28;19931;-71
2022/01/12 12:39:05;;;;;;;;;;;6.90;99.90;;;;;;8382343;28;19949;-71
2022/01/12 12:43:19;;;;;;;;;;;6.80;99.90;;;;;;8385922;28;19925;-71
2022/01/12 12:47:22;;;;;;;;;;;6.80;99.90;;;;;;8387163;28;19971;-71
2022/01/12 12:51:23;;;;;;;;;;;6.70;99.90;;;;;;8381172;28;19929;-71
2022/01/12 12:55:25;;;;;;;;;;;6.70;99.90;;;;;;8387393;28;19967;-71
2022/01/12 12:59:26;;;;;;;;;;;6.70;99.90;;;;;;8384390;28;20284;-71
2022/01/12 13:03:28;;;;;;;;;;;6.70;99.90;;;;;;8382903;28;19972;-71
2022/01/12 13:07:34;;;;;;;;;;;6.70;99.90;;;;;;8374488;28;20332;-70
2022/01/12 13:11:37;;;;;;;;;;;6.60;99.90;;;;;;8381122;28;19928;-71
2022/01/12 13:15:40;;;;;;;;;;;6.60;99.90;;;;;;8384169;28;20288;-72
2022/01/12 13:23:56;;;;;;;;;;;6.60;99.90;;;;;;8385416;28;19932;-71
2022/01/12 13:28:00;;;;;;;;;;;6.50;99.90;;;;;;8386612;28;19968;-71
2022/01/12 13:32:10;;;;;;;;;;;6.50;99.90;;;;;;8388158;28;20296;-71
2022/01/12 13:36:12;;;;;;;;;;;6.50;99.90;;;;;;8381006;28;19924;-72
2022/01/12 13:40:14;;;;;;;;;;;6.40;99.90;;;;;;8381398;28;19925;-70
2022/01/12 13:44:17;;;;;;;;;;;6.30;99.90;;;;;;8364808;28;19929;-71
2022/01/12 13:48:21;;;;;;;;;;;6.20;99.90;;;;;;8384592;28;19924;-71
2022/01/12 13:52:23;;;;;;;;;;;6.20;99.90;;;;;;8394283;28;19932;-71
2022/01/12 13:56:32;;;;;;;;;;;6.20;99.90;;;;;;8391404;28;20246;-71
2022/01/12 14:00:35;;;;;;;;;;;6.20;99.90;;;;;;8380798;28;19967;-71
2022/01/12 14:04:44;;;;;;;;;;;6.20;99.90;;;;;;8375575;28;20260;-71
2022/01/12 14:08:53;;;;;;;;;;;6.20;99.90;;;;;;8384489;28;19932;-71
2022/01/12 14:12:55;;;;;;;;;;;6.20;99.90;;;;;;8386114;28;20384;-72
2022/01/12 14:16:57;;;;;;;;;;;6.20;99.90;;;;;;8388929;28;19971;-70
2022/01/12 14:20:59;;;;;;;;;;;6.10;99.90;;;;;;8393547;28;19928;-71
2022/01/12 14:25:02;;;;;;;;;;;6.10;99.90;;;;;;8391434;28;19936;-70
2022/01/12 14:29:04;;;;;;;;;;;6.10;99.90;;;;;;8392511;28;19978;-70
2022/01/12 14:33:06;;;;;;;;;;;6.00;99.90;;;;;;8392619;28;19925;-70
2022/01/12 14:37:09;;;;;;;;;;;5.90;99.90;;;;;;8375903;28;20284;-71
2022/01/12 14:41:11;;;;;;;;;;;5.90;99.90;;;;;;8371356;28;20283;-71
2022/01/12 14:45:18;;;;;;;;;;;5.90;99.90;;;;;;8394354;28;19944;-71
2022/01/12 14:49:20;;;;;;;;;;;5.80;99.90;;;;;;8376196;28;19947;-71
2022/01/12 14:53:22;;;;;;;;;;;5.80;99.90;;;;;;8384684;28;19928;-71
2022/01/12 14:57:24;;;;;;;;;;;5.70;99.90;;;;;;8384137;28;19967;-72
2022/01/12 15:01:25;;;;;;;;;;;5.70;99.90;;;;;;8376869;28;19968;-71
2022/01/12 15:05:28;;;;;;;;;;;5.60;99.90;;;;;;8377874;28;19924;-72
2022/01/12 15:09:30;;;;;;;;;;;5.60;99.90;;;;;;8380448;28;19963;-72
2022/01/12 15:13:55;;;;;;;;;;;5.50;99.90;;;;;;8380460;28;19924;-71
2022/01/12 15:17:57;;;;;;;;;;;5.50;99.90;;;;;;8378217;28;20414;-72
2022/01/12 15:22:00;;;;;;;;;;;5.50;99.90;;;;;;8383877;28;19976;-71
2022/01/12 15:26:01;;;;;;;;;;;5.40;99.90;;;;;;8368013;28;20291;-71
2022/01/12 15:30:04;;;;;;;;;;;5.50;99.90;;;;;;8366450;28;20383;-71
2022/01/12 15:34:06;;;;;;;;;;;5.50;99.90;;;;;;8365311;28;20360;-72
2022/01/12 15:38:09;;;;;;;;;;;5.50;99.90;;;;;;8381106;28;19924;-71
2022/01/12 15:42:11;;;;;;;;;;;5.50;99.90;;;;;;8368504;28;20387;-71
2022/01/12 15:46:12;;;;;;;;;;;5.40;99.90;;;;;;8367530;28;20015;-71
2022/01/12 15:50:14;;;;;;;;;;;5.30;99.90;;;;;;8379855;28;19940;-71
2022/01/12 15:54:16;;;;;;;;;;;5.30;99.90;;;;;;8372073;28;19929;-70
2022/01/12 15:58:19;;;;;;;;;;;5.30;99.90;;;;;;8364414;28;20297;-71
2022/01/12 16:02:20;;;;;;;;;;;5.30;99.90;;;;;;8343199;28;19967;-71
2022/01/12 16:06:24;;;;;;;;;;;5.30;99.90;;;;;;8374257;28;20330;-71
2022/01/12 16:10:30;;;;;;;;;;;5.30;99.90;;;;;;8352376;28;20262;-71
2022/01/12 16:14:32;;;;;;;;;;;5.30;99.90;;;;;;8361254;28;19948;-70
2022/01/12 16:18:35;;;;;;;;;;;5.30;99.90;;;;;;8375527;28;20319;-71
2022/01/12 16:22:37;;;;;;;;;;;5.30;99.90;;;;;;8360701;28;19967;-72
2022/01/12 16:26:39;;;;;;;;;;;5.30;99.90;;;;;;8360004;28;19939;-71
2022/01/12 16:30:44;;;;;;;;;;;5.30;99.90;;;;;;8344404;28;19925;-71
2022/01/12 16:34:46;;;;;;;;;;;5.30;99.90;;;;;;8360196;28;22647;-70
2022/01/12 16:38:49;;;;;;;;;;;5.30;99.90;;;;;;8353678;28;19929;-70
2022/01/12 16:42:50;;;;;;;;;;;5.20;99.90;;;;;;8361633;28;20067;-71
2022/01/12 16:46:52;;;;;;;;;;;5.20;99.90;;;;;;8360477;28;20008;-70
2022/01/12 16:50:54;;;;;;;;;;;5.20;99.90;;;;;;8355222;28;20945;-71
2022/01/12 16:54:55;;;;;;;;;;;5.20;99.90;;;;;;8362229;28;19925;-71
2022/01/12 16:58:57;;;;;;;;;;;5.10;99.90;;;;;;8360528;28;19932;-71
2022/01/12 17:02:58;;;;;;;;;;;5.10;99.90;;;;;;8361801;28;20603;-71
2022/01/12 17:07:00;;;;;;;;;;;5.10;99.90;;;;;;8347651;28;19940;-71
2022/01/12 17:11:02;;;;;;;;;;;5.10;99.90;;;;;;8341757;28;19925;-71
2022/01/12 17:15:24;;;;;;;;;;;5.10;99.90;;;;;;8356255;28;20023;-71
2022/01/12 17:19:26;;;;;;;;;;;5.10;99.90;;;;;;8359781;28;19956;-71
2022/01/12 17:23:50;;;;;;;;;;;5.00;99.90;;;;;;8359196;28;19939;-71
2022/01/12 17:28:15;;;;;;;;;;;5.00;99.90;;;;;;8356397;28;19925;-71
2022/01/12 17:32:16;;;;;;;;;;;5.00;99.90;;;;;;8365806;28;19929;-71
2022/01/12 17:36:37;;;;;;;;;;;5.00;99.90;;;;;;8363030;28;19975;-71
2022/01/12 17:40:41;;;;;;;;;;;5.00;99.90;;;;;;8362752;28;19929;-71
2022/01/12 17:44:44;;;;;;;;;;;5.00;99.90;;;;;;8339955;28;20388;-72
2022/01/12 17:48:47;;;;;;;;;;;5.00;99.90;;;;;;8358913;28;19964;-71
2022/01/12 17:52:48;;;;;;;;;;;5.00;99.90;;;;;;8358248;28;19968;-71
2022/01/12 17:56:51;;;;;;;;;;;5.00;99.90;;;;;;8373943;28;19924;-71
2022/01/12 18:00:53;;;;;;;;;;;5.10;99.90;;;;;;8360812;28;19960;-71
2022/01/12 18:04:54;;;;;;;;;;;5.10;99.90;;;;;;8356431;28;19967;-71
2022/01/12 18:08:56;;;;;;;;;;;5.20;99.90;;;;;;8358811;28;20405;-71
2022/01/12 18:12:57;;;;;;;;;;;5.10;99.90;;;;;;8355858;28;19936;-71
2022/01/12 18:16:59;;;;;;;;;;;5.10;99.90;;;;;;8341754;28;19959;-70
2022/01/12 18:21:01;;;;;;;;;;;5.10;99.90;;;;;;8357943;28;21701;-72
2022/01/12 18:25:04;;;;;;;;;;;5.10;99.90;;;;;;8356581;28;19928;-71
2022/01/12 18:29:05;;;;;;;;;;;5.10;99.90;;;;;;8338049;28;19964;-71
2022/01/12 18:33:07;;;;;;;;;;;5.10;99.90;;;;;;8358188;28;19980;-70
2022/01/12 18:37:08;;;;;;;;;;;5.10;99.90;;;;;;8377553;28;19940;-70
2022/01/12 18:41:10;;;;;;;;;;;5.10;99.90;;;;;;8347675;28;20375;-71
2022/01/12 18:45:12;;;;;;;;;;;5.10;99.90;;;;;;8379247;28;19971;-70
2022/01/12 18:49:14;;;;;;;;;;;5.10;99.90;;;;;;8367416;28;20391;-70
2022/01/12 18:53:16;;;;;;;;;;;5.10;99.90;;;;;;8365922;28;20364;-71
2022/01/12 18:57:17;;;;;;;;;;;5.10;99.90;;;;;;8360289;28;19924;-71
2022/01/12 19:01:19;;;;;;;;;;;5.10;99.90;;;;;;8377975;28;19932;-71
2022/01/12 19:05:32;;;;;;;;;;;5.10;99.90;;;;;;8366688;28;19935;-71
2022/01/12 19:09:33;;;;;;;;;;;5.10;99.90;;;;;;8365908;28;20265;-71
2022/01/12 19:13:40;;;;;;;;;;;5.10;99.90;;;;;;8379699;28;19928;-71
2022/01/12 19:17:42;;;;;;;;;;;5.10;99.90;;;;;;8363925;28;20018;-70
2022/01/12 19:21:44;;;;;;;;;;;5.00;99.90;;;;;;8371282;28;20296;-71
2022/01/12 19:25:48;;;;;;;;;;;5.00;99.90;;;;;;8370919;28;20011;-71
2022/01/12 19:29:49;;;;;;;;;;;5.00;99.90;;;;;;8359304;28;19932;-71
2022/01/12 19:33:51;;;;;;;;;;;5.00;99.90;;;;;;8374623;28;20019;-71
2022/01/12 19:37:53;;;;;;;;;;;5.00;99.90;;;;;;8369876;28;19959;-71
2022/01/12 19:41:55;;;;;;;;;;;5.00;99.90;;;;;;8371087;28;20369;-71
2022/01/12 19:45:56;;;;;;;;;;;5.00;99.90;;;;;;8369067;28;19986;-71
2022/01/12 19:49:58;;;;;;;;;;;5.00;99.90;;;;;;8370195;28;19932;-71
2022/01/12 19:54:08;;;;;;;;;;;5.00;99.90;;;;;;8379414;28;19979;-71
2022/01/12 19:58:13;;;;;;;;;;;5.00;99.90;;;;;;8366541;28;19925;-71
2022/01/12 20:02:28;;;;;;;;;;;5.00;99.90;;;;;;8361202;28;19925;-70
2022/01/12 20:06:30;;;;;;;;;;;5.00;99.90;;;;;;8360698;28;20352;-71
2022/01/12 20:10:32;;;;;;;;;;;5.00;99.90;;;;;;8350896;28;19936;-71
2022/01/12 20:14:33;;;;;;;;;;;4.90;99.90;;;;;;8358405;28;19928;-71
2022/01/12 20:23:14;;;;;;;;;;;4.90;99.90;;;;;;8361927;28;20384;-70
2022/01/12 20:27:17;;;;;;;;;;;4.90;99.90;;;;;;8353019;28;19925;-70
2022/01/12 20:31:19;;;;;;;;;;;4.80;99.90;;;;;;8351784;28;20003;-70
2022/01/12 20:35:20;;;;;;;;;;;4.80;99.90;;;;;;8358402;28;19928;-71
2022/01/12 20:39:22;;;;;;;;;;;4.70;99.90;;;;;;8371658;28;19929;-70
2022/01/12 20:43:23;;;;;;;;;;;4.70;99.90;;;;;;8360941;28;20398;-71
2022/01/12 20:47:25;;;;;;;;;;;4.70;99.90;;;;;;8376180;28;19938;-71
2022/01/12 20:51:27;;;;;;;;;;;4.70;99.90;;;;;;8364447;28;20372;-71
2022/01/12 20:55:28;;;;;;;;;;;4.60;99.90;;;;;;8365455;28;20011;-71
2022/01/12 20:59:33;;;;;;;;;;;4.60;99.90;;;;;;8361729;28;19933;-70
2022/01/12 21:03:35;;;;;;;;;;;4.60;99.90;;;;;;8355295;28;19952;-71
2022/01/12 21:07:37;;;;;;;;;;;4.60;99.90;;;;;;8361016;28;19928;-70
2022/01/12 21:11:38;;;;;;;;;;;4.60;99.90;;;;;;8358206;28;19960;-70
2022/01/12 21:15:43;;;;;;;;;;;4.60;99.90;;;;;;8355140;28;19955;-71
2022/01/12 21:19:44;;;;;;;;;;;4.60;99.90;;;;;;8360542;28;20277;-70
2022/01/12 21:23:46;;;;;;;;;;;4.60;99.90;;;;;;8353614;28;20017;-71
2022/01/12 21:27:47;;;;;;;;;;;4.60;99.90;;;;;;8348639;28;20327;-71
2022/01/12 21:31:49;;;;;;;;;;;4.60;99.90;;;;;;8358636;28;19964;-70
2022/01/12 21:35:56;;;;;;;;;;;4.60;99.90;;;;;;8359275;28;19944;-71
2022/01/12 21:40:13;;;;;;;;;;;4.60;99.90;;;;;;8358150;28;19924;-71
2022/01/12 21:44:15;;;;;;;;;;;4.60;99.90;;;;;;8379570;28;19929;-70
2022/01/12 21:48:16;;;;;;;;;;;4.60;99.90;;;;;;8358017;28;20028;-70
2022/01/12 21:52:18;;;;;;;;;;;4.60;99.90;;;;;;8358732;28;20066;-71
2022/01/12 21:56:20;;;;;;;;;;;4.60;99.90;;;;;;8356223;28;20008;-71
2022/01/12 22:00:21;;;;;;;;;;;4.60;99.90;;;;;;8357246;28;19924;-70
2022/01/12 22:04:23;;;;;;;;;;;4.60;99.90;;;;;;8368494;28;19963;-70
2022/01/12 22:08:24;;;;;;;;;;;4.60;99.90;;;;;;8376865;28;19925;-71
2022/01/12 22:12:26;;;;;;;;;;;4.60;99.90;;;;;;8376416;28;19925;-70
2022/01/12 22:16:28;;;;;;;;;;;4.50;99.90;;;;;;8382497;28;22290;-70
2022/01/12 22:20:30;;;;;;;;;;;4.50;99.90;;;;;;8385689;28;20395;-71
2022/01/12 22:24:31;;;;;;;;;;;4.50;99.90;;;;;;8382566;28;19975;-70
2022/01/12 22:28:34;;;;;;;;;;;4.50;99.90;;;;;;8377953;28;19978;-70
2022/01/12 22:32:37;;;;;;;;;;;4.50;99.90;;;;;;8377767;28;19998;-71
2022/01/12 22:36:38;;;;;;;;;;;4.50;99.90;;;;;;8373981;28;19986;-71
2022/01/12 22:40:40;;;;;;;;;;;4.50;99.90;;;;;;8389710;28;19939;-70
2022/01/12 22:44:41;;;;;;;;;;;4.50;99.90;;;;;;8366700;28;19954;-71
2022/01/12 22:48:44;;;;;;;;;;;4.40;99.90;;;;;;8386610;28;19967;-70
2022/01/12 22:52:45;;;;;;;;;;;4.40;99.90;;;;;;8380295;28;22308;-71
2022/01/12 22:56:52;;;;;;;;;;;4.40;99.90;;;;;;8379581;28;20388;-71
2022/01/12 23:00:54;;;;;;;;;;;4.40;99.90;;;;;;8377434;28;20335;-71
2022/01/12 23:04:56;;;;;;;;;;;4.30;99.90;;;;;;8382079;28;20011;-70
2022/01/12 23:08:57;;;;;;;;;;;4.30;99.90;;;;;;8385838;28;19980;-71
2022/01/12 23:13:00;;;;;;;;;;;4.30;99.90;;;;;;8377776;28;19959;-71
2022/01/12 23:17:02;;;;;;;;;;;4.30;99.90;;;;;;8388275;28;20067;-71
2022/01/12 23:21:04;;;;;;;;;;;4.30;99.90;;;;;;8381178;28;19935;-71
2022/01/12 23:25:06;;;;;;;;;;;4.30;99.90;;;;;;8355280;28;20494;-70
2022/01/12 23:29:08;;;;;;;;;;;4.30;99.90;;;;;;8388766;28;20012;-70
2022/01/12 23:33:23;;;;;;;;;;;4.30;99.90;;;;;;8369077;28;20376;-71
2022/01/12 23:58:56;;;;;;;;;;;4.40;99.90;;;;;;8370875;28;20320;-71
